<?xml version="1.0" encoding="UTF-8"?>
<gpx xmlns="http://www.topografix.com/GPX/1/1" xmlns:xsi="http://www.w3.org/2001/XMLSchema-instance" version="1.1" xsi:schemaLocation="http://www.topografix.com/GPX/1/1 http://www.topografix.com/GPX/1/1/gpx.xsd">
  <metadata>
    <name>Midvaal Triathlon 2026</name>
  </metadata>
  <trk>
    <name>Midvaal Triathlon 2026</name>
    <trkseg>
      <trkpt lat="-26.515989" lon="28.065384">
        <ele>1465.577921</ele>
        <time>2026-02-22T07:40:00.000Z</time>
      </trkpt>
      <trkpt lat="-26.516477" lon="28.065447">
        <ele>1465.577924</ele>
        <time>2026-02-22T07:40:05.000Z</time>
      </trkpt>
      <trkpt lat="-26.51649" lon="28.065449">
        <ele>1465.577925</ele>
        <time>2026-02-22T07:40:05.000Z</time>
      </trkpt>
      <trkpt lat="-26.5195" lon="28.065872">
        <ele>1466.072673</ele>
        <time>2026-02-22T07:40:39.000Z</time>
      </trkpt>
      <trkpt lat="-26.520356" lon="28.065706">
        <ele>1466.215335</ele>
        <time>2026-02-22T07:40:49.000Z</time>
      </trkpt>
      <trkpt lat="-26.527131" lon="28.064227">
        <ele>1468.419383</ele>
        <time>2026-02-22T07:42:06.000Z</time>
      </trkpt>
      <trkpt lat="-26.528713" lon="28.063914">
        <ele>1471.702189</ele>
        <time>2026-02-22T07:42:24.000Z</time>
      </trkpt>
      <trkpt lat="-26.528595" lon="28.06346">
        <ele>1472.713393</ele>
        <time>2026-02-22T07:42:29.000Z</time>
      </trkpt>
      <trkpt lat="-26.528508" lon="28.063133">
        <ele>1473.259554</ele>
        <time>2026-02-22T07:42:32.000Z</time>
      </trkpt>
      <trkpt lat="-26.528439" lon="28.062781">
        <ele>1473.604362</ele>
        <time>2026-02-22T07:42:36.000Z</time>
      </trkpt>
      <trkpt lat="-26.528155" lon="28.061483">
        <ele>1474.891662</ele>
        <time>2026-02-22T07:42:49.000Z</time>
      </trkpt>
      <trkpt lat="-26.528006" lon="28.060805">
        <ele>1475.392575</ele>
        <time>2026-02-22T07:42:56.000Z</time>
      </trkpt>
      <trkpt lat="-26.52784" lon="28.060118">
        <ele>1475.854487</ele>
        <time>2026-02-22T07:43:03.000Z</time>
      </trkpt>
      <trkpt lat="-26.527773" lon="28.059852">
        <ele>1476.029355</ele>
        <time>2026-02-22T07:43:06.000Z</time>
      </trkpt>
      <trkpt lat="-26.527583" lon="28.05903">
        <ele>1476.673735</ele>
        <time>2026-02-22T07:43:14.000Z</time>
      </trkpt>
      <trkpt lat="-26.527429" lon="28.058431">
        <ele>1477.21819</ele>
        <time>2026-02-22T07:43:20.000Z</time>
      </trkpt>
      <trkpt lat="-26.527249" lon="28.057585">
        <ele>1478.001182</ele>
        <time>2026-02-22T07:43:29.000Z</time>
      </trkpt>
      <trkpt lat="-26.526625" lon="28.054834">
        <ele>1479.134547</ele>
        <time>2026-02-22T07:43:57.000Z</time>
      </trkpt>
      <trkpt lat="-26.526014" lon="28.049578">
        <ele>1483.830179</ele>
        <time>2026-02-22T07:44:50.000Z</time>
      </trkpt>
      <trkpt lat="-26.525944" lon="28.049226">
        <ele>1483.904369</ele>
        <time>2026-02-22T07:44:54.000Z</time>
      </trkpt>
      <trkpt lat="-26.525867" lon="28.048971">
        <ele>1483.928443</ele>
        <time>2026-02-22T07:44:57.000Z</time>
      </trkpt>
      <trkpt lat="-26.52561" lon="28.048404">
        <ele>1483.986043</ele>
        <time>2026-02-22T07:45:03.000Z</time>
      </trkpt>
      <trkpt lat="-26.52525" lon="28.047828">
        <ele>1484.049264</ele>
        <time>2026-02-22T07:45:10.000Z</time>
      </trkpt>
      <trkpt lat="-26.524011" lon="28.046259">
        <ele>1484.923644</ele>
        <time>2026-02-22T07:45:31.000Z</time>
      </trkpt>
      <trkpt lat="-26.523432" lon="28.045581">
        <ele>1485.592776</ele>
        <time>2026-02-22T07:45:40.000Z</time>
      </trkpt>
      <trkpt lat="-26.523012" lon="28.045085">
        <ele>1486.081561</ele>
        <time>2026-02-22T07:45:47.000Z</time>
      </trkpt>
      <trkpt lat="-26.522646" lon="28.044695">
        <ele>1486.461411</ele>
        <time>2026-02-22T07:45:53.000Z</time>
      </trkpt>
      <trkpt lat="-26.521616" lon="28.045677">
        <ele>1487.303877</ele>
        <time>2026-02-22T07:46:08.000Z</time>
      </trkpt>
      <trkpt lat="-26.521526" lon="28.045725">
        <ele>1487.354291</ele>
        <time>2026-02-22T07:46:09.000Z</time>
      </trkpt>
      <trkpt lat="-26.521417" lon="28.045728">
        <ele>1487.428787</ele>
        <time>2026-02-22T07:46:10.000Z</time>
      </trkpt>
      <trkpt lat="-26.521303" lon="28.045678">
        <ele>1487.493539</ele>
        <time>2026-02-22T07:46:11.000Z</time>
      </trkpt>
      <trkpt lat="-26.521046" lon="28.045397">
        <ele>1487.630759</ele>
        <time>2026-02-22T07:46:15.000Z</time>
      </trkpt>
      <trkpt lat="-26.520938" lon="28.045325">
        <ele>1487.674106</ele>
        <time>2026-02-22T07:46:16.000Z</time>
      </trkpt>
      <trkpt lat="-26.520832" lon="28.045349">
        <ele>1487.71714</ele>
        <time>2026-02-22T07:46:17.000Z</time>
      </trkpt>
      <trkpt lat="-26.520716" lon="28.045433">
        <ele>1487.767635</ele>
        <time>2026-02-22T07:46:19.000Z</time>
      </trkpt>
      <trkpt lat="-26.516884" lon="28.049108">
        <ele>1489.666832</ele>
        <time>2026-02-22T07:47:15.000Z</time>
      </trkpt>
      <trkpt lat="-26.516614" lon="28.04931">
        <ele>1489.928114</ele>
        <time>2026-02-22T07:47:19.000Z</time>
      </trkpt>
      <trkpt lat="-26.515427" lon="28.050024">
        <ele>1490.732117</ele>
        <time>2026-02-22T07:47:34.000Z</time>
      </trkpt>
      <trkpt lat="-26.515401" lon="28.050039">
        <ele>1490.728533</ele>
        <time>2026-02-22T07:47:34.000Z</time>
      </trkpt>
      <trkpt lat="-26.515309" lon="28.050094">
        <ele>1490.717659</ele>
        <time>2026-02-22T07:47:35.000Z</time>
      </trkpt>
      <trkpt lat="-26.513363" lon="28.051802">
        <ele>1489.964128</ele>
        <time>2026-02-22T07:48:03.000Z</time>
      </trkpt>
      <trkpt lat="-26.512531" lon="28.052514">
        <ele>1489.528031</ele>
        <time>2026-02-22T07:48:15.000Z</time>
      </trkpt>
      <trkpt lat="-26.512191" lon="28.052857">
        <ele>1489.474787</ele>
        <time>2026-02-22T07:48:20.000Z</time>
      </trkpt>
      <trkpt lat="-26.511579" lon="28.05334">
        <ele>1489.38801</ele>
        <time>2026-02-22T07:48:28.000Z</time>
      </trkpt>
      <trkpt lat="-26.510861" lon="28.053965">
        <ele>1489.686834</ele>
        <time>2026-02-22T07:48:38.000Z</time>
      </trkpt>
      <trkpt lat="-26.510184" lon="28.054401">
        <ele>1490.065896</ele>
        <time>2026-02-22T07:48:47.000Z</time>
      </trkpt>
      <trkpt lat="-26.508765" lon="28.05506">
        <ele>1490.890706</ele>
        <time>2026-02-22T07:49:04.000Z</time>
      </trkpt>
      <trkpt lat="-26.505786" lon="28.056395">
        <ele>1491.991755</ele>
        <time>2026-02-22T07:49:40.000Z</time>
      </trkpt>
      <trkpt lat="-26.504406" lon="28.057002">
        <ele>1491.890559</ele>
        <time>2026-02-22T07:49:56.000Z</time>
      </trkpt>
      <trkpt lat="-26.504084" lon="28.05711">
        <ele>1491.737815</ele>
        <time>2026-02-22T07:50:00.000Z</time>
      </trkpt>
      <trkpt lat="-26.501912" lon="28.057909">
        <ele>1490.41021</ele>
        <time>2026-02-22T07:50:25.000Z</time>
      </trkpt>
      <trkpt lat="-26.50071" lon="28.058426">
        <ele>1489.494355</ele>
        <time>2026-02-22T07:50:39.000Z</time>
      </trkpt>
      <trkpt lat="-26.496867" lon="28.060077">
        <ele>1486.338532</ele>
        <time>2026-02-22T07:51:25.000Z</time>
      </trkpt>
      <trkpt lat="-26.496479" lon="28.060269">
        <ele>1485.961739</ele>
        <time>2026-02-22T07:51:30.000Z</time>
      </trkpt>
      <trkpt lat="-26.497003" lon="28.061742">
        <ele>1483.941157</ele>
        <time>2026-02-22T07:51:46.000Z</time>
      </trkpt>
      <trkpt lat="-26.497197" lon="28.062342">
        <ele>1483.107354</ele>
        <time>2026-02-22T07:51:52.000Z</time>
      </trkpt>
      <trkpt lat="-26.497499" lon="28.063173">
        <ele>1481.950966</ele>
        <time>2026-02-22T07:52:01.000Z</time>
      </trkpt>
      <trkpt lat="-26.498022" lon="28.064653">
        <ele>1479.622716</ele>
        <time>2026-02-22T07:52:17.000Z</time>
      </trkpt>
      <trkpt lat="-26.49851" lon="28.066102">
        <ele>1476.773386</ele>
        <time>2026-02-22T07:52:32.000Z</time>
      </trkpt>
      <trkpt lat="-26.499006" lon="28.067492">
        <ele>1472.679691</ele>
        <time>2026-02-22T07:52:47.000Z</time>
      </trkpt>
      <trkpt lat="-26.499472" lon="28.068849">
        <ele>1468.765949</ele>
        <time>2026-02-22T07:53:01.000Z</time>
      </trkpt>
      <trkpt lat="-26.499844" lon="28.069947">
        <ele>1466.157898</ele>
        <time>2026-02-22T07:53:13.000Z</time>
      </trkpt>
      <trkpt lat="-26.49995" lon="28.070237">
        <ele>1465.911341</ele>
        <time>2026-02-22T07:53:16.000Z</time>
      </trkpt>
      <trkpt lat="-26.500257" lon="28.071175">
        <ele>1465.14743</ele>
        <time>2026-02-22T07:53:26.000Z</time>
      </trkpt>
      <trkpt lat="-26.500406" lon="28.071895">
        <ele>1464.98315</ele>
        <time>2026-02-22T07:53:33.000Z</time>
      </trkpt>
      <trkpt lat="-26.500479" lon="28.072606">
        <ele>1465.348625</ele>
        <time>2026-02-22T07:53:40.000Z</time>
      </trkpt>
      <trkpt lat="-26.500486" lon="28.073214">
        <ele>1465.653097</ele>
        <time>2026-02-22T07:53:46.000Z</time>
      </trkpt>
      <trkpt lat="-26.500408" lon="28.074008">
        <ele>1466.196461</ele>
        <time>2026-02-22T07:53:54.000Z</time>
      </trkpt>
      <trkpt lat="-26.500258" lon="28.07473">
        <ele>1466.799695</ele>
        <time>2026-02-22T07:54:01.000Z</time>
      </trkpt>
      <trkpt lat="-26.500162" lon="28.075102">
        <ele>1467.112485</ele>
        <time>2026-02-22T07:54:05.000Z</time>
      </trkpt>
      <trkpt lat="-26.49979" lon="28.076201">
        <ele>1468.267308</ele>
        <time>2026-02-22T07:54:17.000Z</time>
      </trkpt>
      <trkpt lat="-26.498674" lon="28.079473">
        <ele>1472.15551</ele>
        <time>2026-02-22T07:54:52.000Z</time>
      </trkpt>
      <trkpt lat="-26.498331" lon="28.080682">
        <ele>1473.426452</ele>
        <time>2026-02-22T07:55:05.000Z</time>
      </trkpt>
      <trkpt lat="-26.498158" lon="28.081561">
        <ele>1474.302557</ele>
        <time>2026-02-22T07:55:14.000Z</time>
      </trkpt>
      <trkpt lat="-26.498114" lon="28.081909">
        <ele>1474.634208</ele>
        <time>2026-02-22T07:55:17.000Z</time>
      </trkpt>
      <trkpt lat="-26.498097" lon="28.082566">
        <ele>1475.239988</ele>
        <time>2026-02-22T07:55:24.000Z</time>
      </trkpt>
      <trkpt lat="-26.498193" lon="28.084677">
        <ele>1477.418478</ele>
        <time>2026-02-22T07:55:45.000Z</time>
      </trkpt>
      <trkpt lat="-26.498438" lon="28.091814">
        <ele>1486.238137</ele>
        <time>2026-02-22T07:56:56.000Z</time>
      </trkpt>
      <trkpt lat="-26.498563" lon="28.09537">
        <ele>1490.052357</ele>
        <time>2026-02-22T07:57:31.000Z</time>
      </trkpt>
      <trkpt lat="-26.498663" lon="28.098512">
        <ele>1490.871324</ele>
        <time>2026-02-22T07:58:02.000Z</time>
      </trkpt>
      <trkpt lat="-26.498891" lon="28.104834">
        <ele>1489.067705</ele>
        <time>2026-02-22T07:59:05.000Z</time>
      </trkpt>
      <trkpt lat="-26.498941" lon="28.106642">
        <ele>1489.696165</ele>
        <time>2026-02-22T07:59:23.000Z</time>
      </trkpt>
      <trkpt lat="-26.498726" lon="28.106631">
        <ele>1489.817541</ele>
        <time>2026-02-22T07:59:25.000Z</time>
      </trkpt>
      <trkpt lat="-26.497277" lon="28.106682">
        <ele>1491.182124</ele>
        <time>2026-02-22T07:59:41.000Z</time>
      </trkpt>
      <trkpt lat="-26.496647" lon="28.106755">
        <ele>1491.846777</ele>
        <time>2026-02-22T07:59:48.000Z</time>
      </trkpt>
      <trkpt lat="-26.49628" lon="28.106761">
        <ele>1492.451711</ele>
        <time>2026-02-22T07:59:52.000Z</time>
      </trkpt>
      <trkpt lat="-26.495837" lon="28.106786">
        <ele>1493.283586</ele>
        <time>2026-02-22T07:59:57.000Z</time>
      </trkpt>
      <trkpt lat="-26.490033" lon="28.107003">
        <ele>1504.029941</ele>
        <time>2026-02-22T08:01:02.000Z</time>
      </trkpt>
      <trkpt lat="-26.483237" lon="28.107258">
        <ele>1512.750865</ele>
        <time>2026-02-22T08:02:18.000Z</time>
      </trkpt>
      <trkpt lat="-26.479066" lon="28.107416">
        <ele>1515.796832</ele>
        <time>2026-02-22T08:03:04.000Z</time>
      </trkpt>
      <trkpt lat="-26.478243" lon="28.107384">
        <ele>1516.035287</ele>
        <time>2026-02-22T08:03:13.000Z</time>
      </trkpt>
      <trkpt lat="-26.477528" lon="28.107315">
        <ele>1515.964534</ele>
        <time>2026-02-22T08:03:21.000Z</time>
      </trkpt>
      <trkpt lat="-26.47718" lon="28.107256">
        <ele>1515.930282</ele>
        <time>2026-02-22T08:03:25.000Z</time>
      </trkpt>
      <trkpt lat="-26.476367" lon="28.10705">
        <ele>1515.724071</ele>
        <time>2026-02-22T08:03:34.000Z</time>
      </trkpt>
      <trkpt lat="-26.475133" lon="28.106541">
        <ele>1515.199412</ele>
        <time>2026-02-22T08:03:49.000Z</time>
      </trkpt>
      <trkpt lat="-26.474674" lon="28.106285">
        <ele>1514.914254</ele>
        <time>2026-02-22T08:03:55.000Z</time>
      </trkpt>
      <trkpt lat="-26.474245" lon="28.106041">
        <ele>1514.61919</ele>
        <time>2026-02-22T08:04:00.000Z</time>
      </trkpt>
      <trkpt lat="-26.473839" lon="28.10576">
        <ele>1514.347039</ele>
        <time>2026-02-22T08:04:05.000Z</time>
      </trkpt>
      <trkpt lat="-26.473137" lon="28.105188">
        <ele>1513.632519</ele>
        <time>2026-02-22T08:04:15.000Z</time>
      </trkpt>
      <trkpt lat="-26.4723" lon="28.104423">
        <ele>1512.572687</ele>
        <time>2026-02-22T08:04:27.000Z</time>
      </trkpt>
      <trkpt lat="-26.467732" lon="28.100002">
        <ele>1504.018546</ele>
        <time>2026-02-22T08:05:34.000Z</time>
      </trkpt>
      <trkpt lat="-26.463635" lon="28.096014">
        <ele>1491.022549</ele>
        <time>2026-02-22T08:06:34.000Z</time>
      </trkpt>
      <trkpt lat="-26.461954" lon="28.094376">
        <ele>1486.063035</ele>
        <time>2026-02-22T08:06:59.000Z</time>
      </trkpt>
      <trkpt lat="-26.461535" lon="28.093978">
        <ele>1485.019999</ele>
        <time>2026-02-22T08:07:05.000Z</time>
      </trkpt>
      <trkpt lat="-26.461267" lon="28.093722">
        <ele>1484.339722</ele>
        <time>2026-02-22T08:07:09.000Z</time>
      </trkpt>
      <trkpt lat="-26.456196" lon="28.088828">
        <ele>1476.401033</ele>
        <time>2026-02-22T08:08:24.000Z</time>
      </trkpt>
      <trkpt lat="-26.454961" lon="28.087634">
        <ele>1474.186459</ele>
        <time>2026-02-22T08:08:42.000Z</time>
      </trkpt>
      <trkpt lat="-26.454616" lon="28.087251">
        <ele>1473.510053</ele>
        <time>2026-02-22T08:08:47.000Z</time>
      </trkpt>
      <trkpt lat="-26.454405" lon="28.086951">
        <ele>1473.138311</ele>
        <time>2026-02-22T08:08:51.000Z</time>
      </trkpt>
      <trkpt lat="-26.454121" lon="28.086413">
        <ele>1472.687548</ele>
        <time>2026-02-22T08:08:57.000Z</time>
      </trkpt>
      <trkpt lat="-26.453977" lon="28.086119">
        <ele>1472.444857</ele>
        <time>2026-02-22T08:09:00.000Z</time>
      </trkpt>
      <trkpt lat="-26.453849" lon="28.085784">
        <ele>1472.177754</ele>
        <time>2026-02-22T08:09:04.000Z</time>
      </trkpt>
      <trkpt lat="-26.45368" lon="28.085039">
        <ele>1471.941515</ele>
        <time>2026-02-22T08:09:12.000Z</time>
      </trkpt>
      <trkpt lat="-26.45344" lon="28.083158">
        <ele>1472.977859</ele>
        <time>2026-02-22T08:09:31.000Z</time>
      </trkpt>
      <trkpt lat="-26.452953" lon="28.078687">
        <ele>1479.344909</ele>
        <time>2026-02-22T08:10:16.000Z</time>
      </trkpt>
      <trkpt lat="-26.452884" lon="28.0781">
        <ele>1480.042979</ele>
        <time>2026-02-22T08:10:22.000Z</time>
      </trkpt>
      <trkpt lat="-26.452489" lon="28.07484">
        <ele>1483.771662</ele>
        <time>2026-02-22T08:10:55.000Z</time>
      </trkpt>
      <trkpt lat="-26.452323" lon="28.073317">
        <ele>1485.564876</ele>
        <time>2026-02-22T08:11:10.000Z</time>
      </trkpt>
      <trkpt lat="-26.452193" lon="28.072227">
        <ele>1485.713079</ele>
        <time>2026-02-22T08:11:21.000Z</time>
      </trkpt>
      <trkpt lat="-26.452097" lon="28.071405">
        <ele>1485.825516</ele>
        <time>2026-02-22T08:11:29.000Z</time>
      </trkpt>
      <trkpt lat="-26.452099" lon="28.07138">
        <ele>1485.829904</ele>
        <time>2026-02-22T08:11:29.000Z</time>
      </trkpt>
      <trkpt lat="-26.451939" lon="28.070165">
        <ele>1486.051433</ele>
        <time>2026-02-22T08:11:41.000Z</time>
      </trkpt>
      <trkpt lat="-26.451871" lon="28.069757">
        <ele>1486.129512</ele>
        <time>2026-02-22T08:11:45.000Z</time>
      </trkpt>
      <trkpt lat="-26.451788" lon="28.069358">
        <ele>1486.211692</ele>
        <time>2026-02-22T08:11:49.000Z</time>
      </trkpt>
      <trkpt lat="-26.451648" lon="28.068891">
        <ele>1486.718779</ele>
        <time>2026-02-22T08:11:54.000Z</time>
      </trkpt>
      <trkpt lat="-26.451041" lon="28.067212">
        <ele>1488.433071</ele>
        <time>2026-02-22T08:12:12.000Z</time>
      </trkpt>
      <trkpt lat="-26.450956" lon="28.066842">
        <ele>1488.70254</ele>
        <time>2026-02-22T08:12:16.000Z</time>
      </trkpt>
      <trkpt lat="-26.450886" lon="28.066413">
        <ele>1489.007608</ele>
        <time>2026-02-22T08:12:20.000Z</time>
      </trkpt>
      <trkpt lat="-26.450852" lon="28.066032">
        <ele>1489.273334</ele>
        <time>2026-02-22T08:12:24.000Z</time>
      </trkpt>
      <trkpt lat="-26.450844" lon="28.065611">
        <ele>1489.575242</ele>
        <time>2026-02-22T08:12:28.000Z</time>
      </trkpt>
      <trkpt lat="-26.450922" lon="28.064859">
        <ele>1490.328811</ele>
        <time>2026-02-22T08:12:36.000Z</time>
      </trkpt>
      <trkpt lat="-26.451524" lon="28.061204">
        <ele>1494.72146</ele>
        <time>2026-02-22T08:13:13.000Z</time>
      </trkpt>
      <trkpt lat="-26.451771" lon="28.060002">
        <ele>1495.646303</ele>
        <time>2026-02-22T08:13:25.000Z</time>
      </trkpt>
      <trkpt lat="-26.45189" lon="28.05965">
        <ele>1495.930432</ele>
        <time>2026-02-22T08:13:29.000Z</time>
      </trkpt>
      <trkpt lat="-26.451898" lon="28.059657">
        <ele>1495.934535</ele>
        <time>2026-02-22T08:13:29.000Z</time>
      </trkpt>
      <trkpt lat="-26.451892" lon="28.059659">
        <ele>1495.938639</ele>
        <time>2026-02-22T08:13:29.000Z</time>
      </trkpt>
      <trkpt lat="-26.451777" lon="28.060014">
        <ele>1495.666516</ele>
        <time>2026-02-22T08:13:33.000Z</time>
      </trkpt>
      <trkpt lat="-26.451531" lon="28.061209">
        <ele>1494.712803</ele>
        <time>2026-02-22T08:13:45.000Z</time>
      </trkpt>
      <trkpt lat="-26.450916" lon="28.064859">
        <ele>1490.336635</ele>
        <time>2026-02-22T08:14:22.000Z</time>
      </trkpt>
      <trkpt lat="-26.45084" lon="28.065607">
        <ele>1489.580157</ele>
        <time>2026-02-22T08:14:29.000Z</time>
      </trkpt>
      <trkpt lat="-26.450843" lon="28.066039">
        <ele>1489.274036</ele>
        <time>2026-02-22T08:14:33.000Z</time>
      </trkpt>
      <trkpt lat="-26.450895" lon="28.066417">
        <ele>1489.004603</ele>
        <time>2026-02-22T08:14:37.000Z</time>
      </trkpt>
      <trkpt lat="-26.450954" lon="28.06684">
        <ele>1488.695281</ele>
        <time>2026-02-22T08:14:41.000Z</time>
      </trkpt>
      <trkpt lat="-26.451039" lon="28.067225">
        <ele>1488.422062</ele>
        <time>2026-02-22T08:14:45.000Z</time>
      </trkpt>
      <trkpt lat="-26.451652" lon="28.068892">
        <ele>1486.726427</ele>
        <time>2026-02-22T08:15:03.000Z</time>
      </trkpt>
      <trkpt lat="-26.451792" lon="28.069371">
        <ele>1486.222863</ele>
        <time>2026-02-22T08:15:08.000Z</time>
      </trkpt>
      <trkpt lat="-26.451875" lon="28.069751">
        <ele>1486.115768</ele>
        <time>2026-02-22T08:15:12.000Z</time>
      </trkpt>
      <trkpt lat="-26.451947" lon="28.070174">
        <ele>1486.045239</ele>
        <time>2026-02-22T08:15:16.000Z</time>
      </trkpt>
      <trkpt lat="-26.452091" lon="28.071375">
        <ele>1485.843755</ele>
        <time>2026-02-22T08:15:28.000Z</time>
      </trkpt>
      <trkpt lat="-26.452108" lon="28.071416">
        <ele>1485.838654</ele>
        <time>2026-02-22T08:15:28.000Z</time>
      </trkpt>
      <trkpt lat="-26.452201" lon="28.07224">
        <ele>1485.709494</ele>
        <time>2026-02-22T08:15:36.000Z</time>
      </trkpt>
      <trkpt lat="-26.452327" lon="28.073304">
        <ele>1485.539235</ele>
        <time>2026-02-22T08:15:47.000Z</time>
      </trkpt>
      <trkpt lat="-26.452499" lon="28.074825">
        <ele>1483.775811</ele>
        <time>2026-02-22T08:16:02.000Z</time>
      </trkpt>
      <trkpt lat="-26.452868" lon="28.078102">
        <ele>1480.042151</ele>
        <time>2026-02-22T08:16:35.000Z</time>
      </trkpt>
      <trkpt lat="-26.452952" lon="28.078696">
        <ele>1479.340091</ele>
        <time>2026-02-22T08:16:41.000Z</time>
      </trkpt>
      <trkpt lat="-26.453438" lon="28.083148">
        <ele>1472.990453</ele>
        <time>2026-02-22T08:17:26.000Z</time>
      </trkpt>
      <trkpt lat="-26.453685" lon="28.085037">
        <ele>1471.960641</ele>
        <time>2026-02-22T08:17:45.000Z</time>
      </trkpt>
      <trkpt lat="-26.45385" lon="28.085777">
        <ele>1472.164836</ele>
        <time>2026-02-22T08:17:53.000Z</time>
      </trkpt>
      <trkpt lat="-26.453976" lon="28.086111">
        <ele>1472.437262</ele>
        <time>2026-02-22T08:17:57.000Z</time>
      </trkpt>
      <trkpt lat="-26.454106" lon="28.086419">
        <ele>1472.684771</ele>
        <time>2026-02-22T08:18:00.000Z</time>
      </trkpt>
      <trkpt lat="-26.454418" lon="28.08694">
        <ele>1473.144497</ele>
        <time>2026-02-22T08:18:06.000Z</time>
      </trkpt>
      <trkpt lat="-26.454618" lon="28.087247">
        <ele>1473.500761</ele>
        <time>2026-02-22T08:18:10.000Z</time>
      </trkpt>
      <trkpt lat="-26.454949" lon="28.087641">
        <ele>1474.181514</ele>
        <time>2026-02-22T08:18:15.000Z</time>
      </trkpt>
      <trkpt lat="-26.45619" lon="28.088831">
        <ele>1476.360578</ele>
        <time>2026-02-22T08:18:33.000Z</time>
      </trkpt>
      <trkpt lat="-26.461264" lon="28.093718">
        <ele>1484.339557</ele>
        <time>2026-02-22T08:19:48.000Z</time>
      </trkpt>
      <trkpt lat="-26.461525" lon="28.093988">
        <ele>1485.006278</ele>
        <time>2026-02-22T08:19:52.000Z</time>
      </trkpt>
      <trkpt lat="-26.461938" lon="28.094383">
        <ele>1486.061121</ele>
        <time>2026-02-22T08:19:58.000Z</time>
      </trkpt>
      <trkpt lat="-26.463625" lon="28.096017">
        <ele>1491.023092</ele>
        <time>2026-02-22T08:20:23.000Z</time>
      </trkpt>
      <trkpt lat="-26.467726" lon="28.100001">
        <ele>1504.071015</ele>
        <time>2026-02-22T08:21:23.000Z</time>
      </trkpt>
      <trkpt lat="-26.472306" lon="28.10441">
        <ele>1512.579304</ele>
        <time>2026-02-22T08:22:30.000Z</time>
      </trkpt>
      <trkpt lat="-26.473125" lon="28.105174">
        <ele>1513.629138</ele>
        <time>2026-02-22T08:22:42.000Z</time>
      </trkpt>
      <trkpt lat="-26.473846" lon="28.105778">
        <ele>1514.350489</ele>
        <time>2026-02-22T08:22:52.000Z</time>
      </trkpt>
      <trkpt lat="-26.474242" lon="28.106037">
        <ele>1514.620257</ele>
        <time>2026-02-22T08:22:57.000Z</time>
      </trkpt>
      <trkpt lat="-26.474689" lon="28.106297">
        <ele>1514.912742</ele>
        <time>2026-02-22T08:23:03.000Z</time>
      </trkpt>
      <trkpt lat="-26.475127" lon="28.106538">
        <ele>1515.201989</ele>
        <time>2026-02-22T08:23:08.000Z</time>
      </trkpt>
      <trkpt lat="-26.476366" lon="28.107051">
        <ele>1515.722145</ele>
        <time>2026-02-22T08:23:23.000Z</time>
      </trkpt>
      <trkpt lat="-26.477178" lon="28.107261">
        <ele>1515.933411</ele>
        <time>2026-02-22T08:23:32.000Z</time>
      </trkpt>
      <trkpt lat="-26.477513" lon="28.107324">
        <ele>1515.964172</ele>
        <time>2026-02-22T08:23:36.000Z</time>
      </trkpt>
      <trkpt lat="-26.478248" lon="28.10739">
        <ele>1516.027705</ele>
        <time>2026-02-22T08:23:44.000Z</time>
      </trkpt>
      <trkpt lat="-26.479063" lon="28.107418">
        <ele>1515.768564</ele>
        <time>2026-02-22T08:23:53.000Z</time>
      </trkpt>
      <trkpt lat="-26.483238" lon="28.107255">
        <ele>1512.83419</ele>
        <time>2026-02-22T08:24:39.000Z</time>
      </trkpt>
      <trkpt lat="-26.490034" lon="28.106996">
        <ele>1503.949198</ele>
        <time>2026-02-22T08:25:55.000Z</time>
      </trkpt>
      <trkpt lat="-26.49665" lon="28.10674">
        <ele>1491.884361</ele>
        <time>2026-02-22T08:27:09.000Z</time>
      </trkpt>
      <trkpt lat="-26.497268" lon="28.106698">
        <ele>1491.210224</ele>
        <time>2026-02-22T08:27:16.000Z</time>
      </trkpt>
      <trkpt lat="-26.49873" lon="28.106636">
        <ele>1489.815339</ele>
        <time>2026-02-22T08:27:32.000Z</time>
      </trkpt>
      <trkpt lat="-26.498929" lon="28.106636">
        <ele>1489.695796</ele>
        <time>2026-02-22T08:27:34.000Z</time>
      </trkpt>
      <trkpt lat="-26.498893" lon="28.104833">
        <ele>1489.104334</ele>
        <time>2026-02-22T08:27:52.000Z</time>
      </trkpt>
      <trkpt lat="-26.498662" lon="28.098502">
        <ele>1490.875784</ele>
        <time>2026-02-22T08:28:55.000Z</time>
      </trkpt>
      <trkpt lat="-26.498567" lon="28.09537">
        <ele>1490.040589</ele>
        <time>2026-02-22T08:29:26.000Z</time>
      </trkpt>
      <trkpt lat="-26.498434" lon="28.091819">
        <ele>1486.236516</ele>
        <time>2026-02-22T08:30:01.000Z</time>
      </trkpt>
      <trkpt lat="-26.498282" lon="28.087538">
        <ele>1480.904975</ele>
        <time>2026-02-22T08:30:44.000Z</time>
      </trkpt>
      <trkpt lat="-26.498286" lon="28.087535">
        <ele>1480.894889</ele>
        <time>2026-02-22T08:30:44.000Z</time>
      </trkpt>
      <trkpt lat="-26.498195" lon="28.084681">
        <ele>1477.41666</ele>
        <time>2026-02-22T08:31:12.000Z</time>
      </trkpt>
      <trkpt lat="-26.498095" lon="28.082551">
        <ele>1475.238861</ele>
        <time>2026-02-22T08:31:33.000Z</time>
      </trkpt>
      <trkpt lat="-26.498125" lon="28.081916">
        <ele>1474.633784</ele>
        <time>2026-02-22T08:31:39.000Z</time>
      </trkpt>
      <trkpt lat="-26.498156" lon="28.081561">
        <ele>1474.302497</ele>
        <time>2026-02-22T08:31:43.000Z</time>
      </trkpt>
      <trkpt lat="-26.498324" lon="28.08067">
        <ele>1473.428099</ele>
        <time>2026-02-22T08:31:52.000Z</time>
      </trkpt>
      <trkpt lat="-26.498686" lon="28.079481">
        <ele>1472.152888</ele>
        <time>2026-02-22T08:32:04.000Z</time>
      </trkpt>
      <trkpt lat="-26.499792" lon="28.076201">
        <ele>1468.269296</ele>
        <time>2026-02-22T08:32:39.000Z</time>
      </trkpt>
      <trkpt lat="-26.500169" lon="28.075096">
        <ele>1467.108871</ele>
        <time>2026-02-22T08:32:51.000Z</time>
      </trkpt>
      <trkpt lat="-26.500259" lon="28.074724">
        <ele>1466.798163</ele>
        <time>2026-02-22T08:32:55.000Z</time>
      </trkpt>
      <trkpt lat="-26.500415" lon="28.07402">
        <ele>1466.198965</ele>
        <time>2026-02-22T08:33:02.000Z</time>
      </trkpt>
      <trkpt lat="-26.500483" lon="28.073211">
        <ele>1465.650032</ele>
        <time>2026-02-22T08:33:10.000Z</time>
      </trkpt>
      <trkpt lat="-26.500483" lon="28.072604">
        <ele>1465.352207</ele>
        <time>2026-02-22T08:33:16.000Z</time>
      </trkpt>
      <trkpt lat="-26.500405" lon="28.071895">
        <ele>1464.99472</ele>
        <time>2026-02-22T08:33:23.000Z</time>
      </trkpt>
      <trkpt lat="-26.500262" lon="28.071166">
        <ele>1465.128113</ele>
        <time>2026-02-22T08:33:30.000Z</time>
      </trkpt>
      <trkpt lat="-26.499956" lon="28.070241">
        <ele>1465.928582</ele>
        <time>2026-02-22T08:33:40.000Z</time>
      </trkpt>
      <trkpt lat="-26.49984" lon="28.06994">
        <ele>1466.186913</ele>
        <time>2026-02-22T08:33:43.000Z</time>
      </trkpt>
      <trkpt lat="-26.499464" lon="28.068848">
        <ele>1468.753512</ele>
        <time>2026-02-22T08:33:55.000Z</time>
      </trkpt>
      <trkpt lat="-26.499009" lon="28.0675">
        <ele>1472.688439</ele>
        <time>2026-02-22T08:34:09.000Z</time>
      </trkpt>
      <trkpt lat="-26.49852" lon="28.066106">
        <ele>1476.757045</ele>
        <time>2026-02-22T08:34:24.000Z</time>
      </trkpt>
      <trkpt lat="-26.498012" lon="28.064657">
        <ele>1479.62038</ele>
        <time>2026-02-22T08:34:39.000Z</time>
      </trkpt>
      <trkpt lat="-26.497488" lon="28.063183">
        <ele>1481.953179</ele>
        <time>2026-02-22T08:34:55.000Z</time>
      </trkpt>
      <trkpt lat="-26.497194" lon="28.062333">
        <ele>1483.107394</ele>
        <time>2026-02-22T08:35:04.000Z</time>
      </trkpt>
      <trkpt lat="-26.496999" lon="28.061739">
        <ele>1483.938857</ele>
        <time>2026-02-22T08:35:10.000Z</time>
      </trkpt>
      <trkpt lat="-26.49648" lon="28.060275">
        <ele>1485.972232</ele>
        <time>2026-02-22T08:35:26.000Z</time>
      </trkpt>
      <trkpt lat="-26.496874" lon="28.060076">
        <ele>1486.30411</ele>
        <time>2026-02-22T08:35:31.000Z</time>
      </trkpt>
      <trkpt lat="-26.500695" lon="28.058429">
        <ele>1489.466869</ele>
        <time>2026-02-22T08:36:17.000Z</time>
      </trkpt>
      <trkpt lat="-26.501913" lon="28.057911">
        <ele>1490.412126</ele>
        <time>2026-02-22T08:36:31.000Z</time>
      </trkpt>
      <trkpt lat="-26.504069" lon="28.057102">
        <ele>1491.735756</ele>
        <time>2026-02-22T08:36:56.000Z</time>
      </trkpt>
      <trkpt lat="-26.504402" lon="28.056991">
        <ele>1491.885703</ele>
        <time>2026-02-22T08:37:00.000Z</time>
      </trkpt>
      <trkpt lat="-26.505774" lon="28.056393">
        <ele>1491.992164</ele>
        <time>2026-02-22T08:37:16.000Z</time>
      </trkpt>
      <trkpt lat="-26.50875" lon="28.055065">
        <ele>1490.892935</ele>
        <time>2026-02-22T08:37:52.000Z</time>
      </trkpt>
      <trkpt lat="-26.51019" lon="28.054397">
        <ele>1490.063919</ele>
        <time>2026-02-22T08:38:09.000Z</time>
      </trkpt>
      <trkpt lat="-26.51086" lon="28.053964">
        <ele>1489.689593</ele>
        <time>2026-02-22T08:38:18.000Z</time>
      </trkpt>
      <trkpt lat="-26.511575" lon="28.05334">
        <ele>1489.377373</ele>
        <time>2026-02-22T08:38:28.000Z</time>
      </trkpt>
      <trkpt lat="-26.51219" lon="28.052855">
        <ele>1489.475464</ele>
        <time>2026-02-22T08:38:36.000Z</time>
      </trkpt>
      <trkpt lat="-26.512527" lon="28.052522">
        <ele>1489.535661</ele>
        <time>2026-02-22T08:38:41.000Z</time>
      </trkpt>
      <trkpt lat="-26.513375" lon="28.0518">
        <ele>1489.962555</ele>
        <time>2026-02-22T08:38:53.000Z</time>
      </trkpt>
      <trkpt lat="-26.515298" lon="28.050106">
        <ele>1490.683585</ele>
        <time>2026-02-22T08:39:20.000Z</time>
      </trkpt>
      <trkpt lat="-26.516601" lon="28.049312">
        <ele>1489.926064</ele>
        <time>2026-02-22T08:39:37.000Z</time>
      </trkpt>
      <trkpt lat="-26.516889" lon="28.049105">
        <ele>1489.670669</ele>
        <time>2026-02-22T08:39:41.000Z</time>
      </trkpt>
      <trkpt lat="-26.520717" lon="28.045427">
        <ele>1487.856253</ele>
        <time>2026-02-22T08:40:37.000Z</time>
      </trkpt>
      <trkpt lat="-26.520828" lon="28.045356">
        <ele>1487.788753</ele>
        <time>2026-02-22T08:40:38.000Z</time>
      </trkpt>
      <trkpt lat="-26.520937" lon="28.045328">
        <ele>1487.731205</ele>
        <time>2026-02-22T08:40:39.000Z</time>
      </trkpt>
      <trkpt lat="-26.521046" lon="28.045393">
        <ele>1487.673275</ele>
        <time>2026-02-22T08:40:40.000Z</time>
      </trkpt>
      <trkpt lat="-26.521302" lon="28.045675">
        <ele>1487.489841</ele>
        <time>2026-02-22T08:40:44.000Z</time>
      </trkpt>
      <trkpt lat="-26.52141" lon="28.045717">
        <ele>1487.425341</ele>
        <time>2026-02-22T08:40:45.000Z</time>
      </trkpt>
      <trkpt lat="-26.521541" lon="28.045726">
        <ele>1487.351128</ele>
        <time>2026-02-22T08:40:46.000Z</time>
      </trkpt>
      <trkpt lat="-26.521615" lon="28.04567">
        <ele>1487.300928</ele>
        <time>2026-02-22T08:40:47.000Z</time>
      </trkpt>
      <trkpt lat="-26.522649" lon="28.044702">
        <ele>1486.461688</ele>
        <time>2026-02-22T08:41:02.000Z</time>
      </trkpt>
      <trkpt lat="-26.52302" lon="28.045078">
        <ele>1486.088231</ele>
        <time>2026-02-22T08:41:08.000Z</time>
      </trkpt>
      <trkpt lat="-26.523441" lon="28.045577">
        <ele>1485.599098</ele>
        <time>2026-02-22T08:41:15.000Z</time>
      </trkpt>
      <trkpt lat="-26.523509" lon="28.045663">
        <ele>1485.505776</ele>
        <time>2026-02-22T08:41:16.000Z</time>
      </trkpt>
      <trkpt lat="-26.524013" lon="28.046271">
        <ele>1484.925597</ele>
        <time>2026-02-22T08:41:24.000Z</time>
      </trkpt>
      <trkpt lat="-26.525234" lon="28.047845">
        <ele>1484.05067</ele>
        <time>2026-02-22T08:41:45.000Z</time>
      </trkpt>
      <trkpt lat="-26.52561" lon="28.048403">
        <ele>1483.979802</ele>
        <time>2026-02-22T08:41:52.000Z</time>
      </trkpt>
      <trkpt lat="-26.525855" lon="28.048968">
        <ele>1483.915236</ele>
        <time>2026-02-22T08:41:58.000Z</time>
      </trkpt>
      <trkpt lat="-26.52594" lon="28.049226">
        <ele>1483.888258</ele>
        <time>2026-02-22T08:42:01.000Z</time>
      </trkpt>
      <trkpt lat="-26.526004" lon="28.049578">
        <ele>1483.841965</ele>
        <time>2026-02-22T08:42:05.000Z</time>
      </trkpt>
      <trkpt lat="-26.526612" lon="28.054838">
        <ele>1479.03281</ele>
        <time>2026-02-22T08:42:58.000Z</time>
      </trkpt>
      <trkpt lat="-26.527256" lon="28.057571">
        <ele>1478.013192</ele>
        <time>2026-02-22T08:43:26.000Z</time>
      </trkpt>
      <trkpt lat="-26.527438" lon="28.058438">
        <ele>1477.225478</ele>
        <time>2026-02-22T08:43:35.000Z</time>
      </trkpt>
      <trkpt lat="-26.527584" lon="28.05902">
        <ele>1476.677748</ele>
        <time>2026-02-22T08:43:41.000Z</time>
      </trkpt>
      <trkpt lat="-26.52778" lon="28.059853">
        <ele>1476.02412</ele>
        <time>2026-02-22T08:43:50.000Z</time>
      </trkpt>
      <trkpt lat="-26.527825" lon="28.060115">
        <ele>1475.850505</ele>
        <time>2026-02-22T08:43:53.000Z</time>
      </trkpt>
      <trkpt lat="-26.527997" lon="28.060801">
        <ele>1475.391963</ele>
        <time>2026-02-22T08:44:00.000Z</time>
      </trkpt>
      <trkpt lat="-26.528157" lon="28.061485">
        <ele>1474.903425</ele>
        <time>2026-02-22T08:44:07.000Z</time>
      </trkpt>
      <trkpt lat="-26.528441" lon="28.06278">
        <ele>1473.587463</ele>
        <time>2026-02-22T08:44:20.000Z</time>
      </trkpt>
      <trkpt lat="-26.528505" lon="28.063133">
        <ele>1473.234991</ele>
        <time>2026-02-22T08:44:24.000Z</time>
      </trkpt>
      <trkpt lat="-26.528593" lon="28.063472">
        <ele>1472.730821</ele>
        <time>2026-02-22T08:44:28.000Z</time>
      </trkpt>
      <trkpt lat="-26.528701" lon="28.063919">
        <ele>1471.719033</ele>
        <time>2026-02-22T08:44:33.000Z</time>
      </trkpt>
      <trkpt lat="-26.527129" lon="28.064223">
        <ele>1468.535583</ele>
        <time>2026-02-22T08:44:51.000Z</time>
      </trkpt>
      <trkpt lat="-26.520351" lon="28.065702">
        <ele>1466.216531</ele>
        <time>2026-02-22T08:46:08.000Z</time>
      </trkpt>
      <trkpt lat="-26.519509" lon="28.065859">
        <ele>1466.087098</ele>
        <time>2026-02-22T08:46:17.000Z</time>
      </trkpt>
      <trkpt lat="-26.516477" lon="28.065442">
        <ele>1465.714988</ele>
        <time>2026-02-22T08:46:51.000Z</time>
      </trkpt>
      <trkpt lat="-26.516474" lon="28.065452">
        <ele>1465.715583</ele>
        <time>2026-02-22T08:46:51.000Z</time>
      </trkpt>
      <trkpt lat="-26.516481" lon="28.065442">
        <ele>1465.716171</ele>
        <time>2026-02-22T08:46:51.000Z</time>
      </trkpt>
      <trkpt lat="-26.51951" lon="28.065874">
        <ele>1466.086589</ele>
        <time>2026-02-22T08:47:25.000Z</time>
      </trkpt>
      <trkpt lat="-26.520354" lon="28.065696">
        <ele>1466.237873</ele>
        <time>2026-02-22T08:47:35.000Z</time>
      </trkpt>
      <trkpt lat="-26.52713" lon="28.064224">
        <ele>1468.411602</ele>
        <time>2026-02-22T08:48:52.000Z</time>
      </trkpt>
      <trkpt lat="-26.528696" lon="28.063904">
        <ele>1471.681216</ele>
        <time>2026-02-22T08:49:10.000Z</time>
      </trkpt>
      <trkpt lat="-26.528597" lon="28.063472">
        <ele>1472.409641</ele>
        <time>2026-02-22T08:49:14.000Z</time>
      </trkpt>
      <trkpt lat="-26.52851" lon="28.063131">
        <ele>1472.945236</ele>
        <time>2026-02-22T08:49:18.000Z</time>
      </trkpt>
      <trkpt lat="-26.528448" lon="28.062783">
        <ele>1473.506922</ele>
        <time>2026-02-22T08:49:22.000Z</time>
      </trkpt>
      <trkpt lat="-26.528154" lon="28.061474">
        <ele>1474.928496</ele>
        <time>2026-02-22T08:49:35.000Z</time>
      </trkpt>
      <trkpt lat="-26.527989" lon="28.060791">
        <ele>1475.358238</ele>
        <time>2026-02-22T08:49:42.000Z</time>
      </trkpt>
      <trkpt lat="-26.527833" lon="28.060117">
        <ele>1475.820961</ele>
        <time>2026-02-22T08:49:49.000Z</time>
      </trkpt>
      <trkpt lat="-26.527776" lon="28.059855">
        <ele>1476.050718</ele>
        <time>2026-02-22T08:49:52.000Z</time>
      </trkpt>
      <trkpt lat="-26.527569" lon="28.059032">
        <ele>1476.779543</ele>
        <time>2026-02-22T08:50:01.000Z</time>
      </trkpt>
      <trkpt lat="-26.527442" lon="28.058438">
        <ele>1477.303692</ele>
        <time>2026-02-22T08:50:07.000Z</time>
      </trkpt>
      <trkpt lat="-26.527256" lon="28.057577">
        <ele>1477.798715</ele>
        <time>2026-02-22T08:50:16.000Z</time>
      </trkpt>
      <trkpt lat="-26.526618" lon="28.054847">
        <ele>1478.979428</ele>
        <time>2026-02-22T08:50:44.000Z</time>
      </trkpt>
      <trkpt lat="-26.526007" lon="28.049588">
        <ele>1483.548735</ele>
        <time>2026-02-22T08:51:37.000Z</time>
      </trkpt>
      <trkpt lat="-26.52594" lon="28.049221">
        <ele>1483.720174</ele>
        <time>2026-02-22T08:51:41.000Z</time>
      </trkpt>
      <trkpt lat="-26.525867" lon="28.048974">
        <ele>1483.844016</ele>
        <time>2026-02-22T08:51:44.000Z</time>
      </trkpt>
      <trkpt lat="-26.525607" lon="28.048405">
        <ele>1484.118248</ele>
        <time>2026-02-22T08:51:50.000Z</time>
      </trkpt>
      <trkpt lat="-26.52524" lon="28.047829">
        <ele>1484.219209</ele>
        <time>2026-02-22T08:51:57.000Z</time>
      </trkpt>
      <trkpt lat="-26.524006" lon="28.046267">
        <ele>1485.000914</ele>
        <time>2026-02-22T08:52:18.000Z</time>
      </trkpt>
      <trkpt lat="-26.523429" lon="28.045579">
        <ele>1485.67289</ele>
        <time>2026-02-22T08:52:27.000Z</time>
      </trkpt>
      <trkpt lat="-26.523008" lon="28.045076">
        <ele>1486.085167</ele>
        <time>2026-02-22T08:52:34.000Z</time>
      </trkpt>
      <trkpt lat="-26.522634" lon="28.04469">
        <ele>1486.397635</ele>
        <time>2026-02-22T08:52:40.000Z</time>
      </trkpt>
      <trkpt lat="-26.521604" lon="28.045683">
        <ele>1487.249057</ele>
        <time>2026-02-22T08:52:55.000Z</time>
      </trkpt>
      <trkpt lat="-26.52154" lon="28.045713">
        <ele>1487.302009</ele>
        <time>2026-02-22T08:52:56.000Z</time>
      </trkpt>
      <trkpt lat="-26.521413" lon="28.045718">
        <ele>1487.380274</ele>
        <time>2026-02-22T08:52:57.000Z</time>
      </trkpt>
      <trkpt lat="-26.521312" lon="28.045671">
        <ele>1487.456381</ele>
        <time>2026-02-22T08:52:58.000Z</time>
      </trkpt>
      <trkpt lat="-26.521037" lon="28.045386">
        <ele>1487.694926</ele>
        <time>2026-02-22T08:53:02.000Z</time>
      </trkpt>
      <trkpt lat="-26.520942" lon="28.04533">
        <ele>1487.770286</ele>
        <time>2026-02-22T08:53:03.000Z</time>
      </trkpt>
      <trkpt lat="-26.520818" lon="28.045352">
        <ele>1487.845125</ele>
        <time>2026-02-22T08:53:04.000Z</time>
      </trkpt>
      <trkpt lat="-26.520718" lon="28.045439">
        <ele>1487.932915</ele>
        <time>2026-02-22T08:53:05.000Z</time>
      </trkpt>
      <trkpt lat="-26.516885" lon="28.049104">
        <ele>1489.727471</ele>
        <time>2026-02-22T08:54:01.000Z</time>
      </trkpt>
      <trkpt lat="-26.516606" lon="28.049315">
        <ele>1489.903487</ele>
        <time>2026-02-22T08:54:05.000Z</time>
      </trkpt>
      <trkpt lat="-26.515429" lon="28.05003">
        <ele>1490.581374</ele>
        <time>2026-02-22T08:54:20.000Z</time>
      </trkpt>
      <trkpt lat="-26.515405" lon="28.050046">
        <ele>1490.598789</ele>
        <time>2026-02-22T08:54:20.000Z</time>
      </trkpt>
      <trkpt lat="-26.515298" lon="28.050102">
        <ele>1490.65164</ele>
        <time>2026-02-22T08:54:21.000Z</time>
      </trkpt>
      <trkpt lat="-26.513369" lon="28.051799">
        <ele>1489.980206</ele>
        <time>2026-02-22T08:54:48.000Z</time>
      </trkpt>
      <trkpt lat="-26.512539" lon="28.05252">
        <ele>1489.537054</ele>
        <time>2026-02-22T08:55:00.000Z</time>
      </trkpt>
      <trkpt lat="-26.512182" lon="28.052854">
        <ele>1489.343931</ele>
        <time>2026-02-22T08:55:05.000Z</time>
      </trkpt>
      <trkpt lat="-26.511572" lon="28.05335">
        <ele>1489.412415</ele>
        <time>2026-02-22T08:55:13.000Z</time>
      </trkpt>
      <trkpt lat="-26.510853" lon="28.05397">
        <ele>1489.690954</ele>
        <time>2026-02-22T08:55:23.000Z</time>
      </trkpt>
      <trkpt lat="-26.510192" lon="28.054399">
        <ele>1490.042486</ele>
        <time>2026-02-22T08:55:31.000Z</time>
      </trkpt>
      <trkpt lat="-26.50876" lon="28.055065">
        <ele>1490.922975</ele>
        <time>2026-02-22T08:55:48.000Z</time>
      </trkpt>
      <trkpt lat="-26.505786" lon="28.056398">
        <ele>1492.063471</ele>
        <time>2026-02-22T08:56:24.000Z</time>
      </trkpt>
      <trkpt lat="-26.504404" lon="28.056993">
        <ele>1491.865796</ele>
        <time>2026-02-22T08:56:40.000Z</time>
      </trkpt>
      <trkpt lat="-26.504085" lon="28.05711">
        <ele>1491.794084</ele>
        <time>2026-02-22T08:56:44.000Z</time>
      </trkpt>
      <trkpt lat="-26.501929" lon="28.057918">
        <ele>1490.434795</ele>
        <time>2026-02-22T08:57:09.000Z</time>
      </trkpt>
      <trkpt lat="-26.500693" lon="28.058418">
        <ele>1489.439501</ele>
        <time>2026-02-22T08:57:24.000Z</time>
      </trkpt>
      <trkpt lat="-26.496869" lon="28.06007">
        <ele>1486.373482</ele>
        <time>2026-02-22T08:58:10.000Z</time>
      </trkpt>
      <trkpt lat="-26.496476" lon="28.060278">
        <ele>1485.82234</ele>
        <time>2026-02-22T08:58:15.000Z</time>
      </trkpt>
      <trkpt lat="-26.49699" lon="28.061739">
        <ele>1483.955379</ele>
        <time>2026-02-22T08:58:31.000Z</time>
      </trkpt>
      <trkpt lat="-26.497194" lon="28.062343">
        <ele>1483.130576</ele>
        <time>2026-02-22T08:58:37.000Z</time>
      </trkpt>
      <trkpt lat="-26.497496" lon="28.063183">
        <ele>1481.97689</ele>
        <time>2026-02-22T08:58:46.000Z</time>
      </trkpt>
      <trkpt lat="-26.498012" lon="28.064653">
        <ele>1479.684841</ele>
        <time>2026-02-22T08:59:02.000Z</time>
      </trkpt>
      <trkpt lat="-26.49851" lon="28.066097">
        <ele>1476.576798</ele>
        <time>2026-02-22T08:59:17.000Z</time>
      </trkpt>
      <trkpt lat="-26.499016" lon="28.067499">
        <ele>1472.782615</ele>
        <time>2026-02-22T08:59:32.000Z</time>
      </trkpt>
      <trkpt lat="-26.499468" lon="28.068852">
        <ele>1468.46104</ele>
        <time>2026-02-22T08:59:46.000Z</time>
      </trkpt>
      <trkpt lat="-26.499848" lon="28.069935">
        <ele>1466.452683</ele>
        <time>2026-02-22T08:59:58.000Z</time>
      </trkpt>
      <trkpt lat="-26.499956" lon="28.07025">
        <ele>1465.912759</ele>
        <time>2026-02-22T09:00:01.000Z</time>
      </trkpt>
      <trkpt lat="-26.500252" lon="28.071184">
        <ele>1465.038385</ele>
        <time>2026-02-22T09:00:11.000Z</time>
      </trkpt>
      <trkpt lat="-26.500413" lon="28.071897">
        <ele>1465.161091</ele>
        <time>2026-02-22T09:00:18.000Z</time>
      </trkpt>
      <trkpt lat="-26.500488" lon="28.072607">
        <ele>1465.279741</ele>
        <time>2026-02-22T09:00:25.000Z</time>
      </trkpt>
      <trkpt lat="-26.500479" lon="28.073214">
        <ele>1465.635933</ele>
        <time>2026-02-22T09:00:31.000Z</time>
      </trkpt>
      <trkpt lat="-26.500411" lon="28.074017">
        <ele>1466.200619</ele>
        <time>2026-02-22T09:00:39.000Z</time>
      </trkpt>
      <trkpt lat="-26.500259" lon="28.074721">
        <ele>1466.720894</ele>
        <time>2026-02-22T09:00:46.000Z</time>
      </trkpt>
      <trkpt lat="-26.500167" lon="28.075086">
        <ele>1467.10124</ele>
        <time>2026-02-22T09:00:50.000Z</time>
      </trkpt>
      <trkpt lat="-26.499789" lon="28.076196">
        <ele>1468.272284</ele>
        <time>2026-02-22T09:01:02.000Z</time>
      </trkpt>
      <trkpt lat="-26.49868" lon="28.079481">
        <ele>1472.136929</ele>
        <time>2026-02-22T09:01:37.000Z</time>
      </trkpt>
      <trkpt lat="-26.498316" lon="28.08068">
        <ele>1473.450893</ele>
        <time>2026-02-22T09:01:50.000Z</time>
      </trkpt>
      <trkpt lat="-26.49815" lon="28.081551">
        <ele>1474.282806</ele>
        <time>2026-02-22T09:01:59.000Z</time>
      </trkpt>
      <trkpt lat="-26.498117" lon="28.081917">
        <ele>1474.613582</ele>
        <time>2026-02-22T09:02:03.000Z</time>
      </trkpt>
      <trkpt lat="-26.498099" lon="28.082554">
        <ele>1475.230782</ele>
        <time>2026-02-22T09:02:09.000Z</time>
      </trkpt>
      <trkpt lat="-26.498189" lon="28.08469">
        <ele>1477.414289</ele>
        <time>2026-02-22T09:02:30.000Z</time>
      </trkpt>
      <trkpt lat="-26.498431" lon="28.091815">
        <ele>1486.238128</ele>
        <time>2026-02-22T09:03:41.000Z</time>
      </trkpt>
      <trkpt lat="-26.498572" lon="28.095379">
        <ele>1489.880664</ele>
        <time>2026-02-22T09:04:17.000Z</time>
      </trkpt>
      <trkpt lat="-26.498671" lon="28.098506">
        <ele>1490.999707</ele>
        <time>2026-02-22T09:04:48.000Z</time>
      </trkpt>
      <trkpt lat="-26.498892" lon="28.104841">
        <ele>1489.054697</ele>
        <time>2026-02-22T09:05:51.000Z</time>
      </trkpt>
      <trkpt lat="-26.498941" lon="28.106643">
        <ele>1489.657093</ele>
        <time>2026-02-22T09:06:09.000Z</time>
      </trkpt>
      <trkpt lat="-26.498717" lon="28.106634">
        <ele>1489.825556</ele>
        <time>2026-02-22T09:06:11.000Z</time>
      </trkpt>
      <trkpt lat="-26.497265" lon="28.106685">
        <ele>1491.024898</ele>
        <time>2026-02-22T09:06:27.000Z</time>
      </trkpt>
      <trkpt lat="-26.496653" lon="28.106745">
        <ele>1491.984466</ele>
        <time>2026-02-22T09:06:34.000Z</time>
      </trkpt>
      <trkpt lat="-26.496289" lon="28.106756">
        <ele>1492.556232</ele>
        <time>2026-02-22T09:06:38.000Z</time>
      </trkpt>
      <trkpt lat="-26.495842" lon="28.106775">
        <ele>1493.237725</ele>
        <time>2026-02-22T09:06:43.000Z</time>
      </trkpt>
      <trkpt lat="-26.490017" lon="28.107008">
        <ele>1504.132234</ele>
        <time>2026-02-22T09:07:48.000Z</time>
      </trkpt>
      <trkpt lat="-26.483237" lon="28.107253">
        <ele>1512.894746</ele>
        <time>2026-02-22T09:09:03.000Z</time>
      </trkpt>
      <trkpt lat="-26.479072" lon="28.107418">
        <ele>1515.810949</ele>
        <time>2026-02-22T09:09:49.000Z</time>
      </trkpt>
      <trkpt lat="-26.478237" lon="28.107385">
        <ele>1515.950497</ele>
        <time>2026-02-22T09:09:58.000Z</time>
      </trkpt>
      <trkpt lat="-26.47751" lon="28.107317">
        <ele>1516.064856</ele>
        <time>2026-02-22T09:10:06.000Z</time>
      </trkpt>
      <trkpt lat="-26.477167" lon="28.107253">
        <ele>1515.957572</ele>
        <time>2026-02-22T09:10:10.000Z</time>
      </trkpt>
      <trkpt lat="-26.476374" lon="28.107036">
        <ele>1515.705666</ele>
        <time>2026-02-22T09:10:19.000Z</time>
      </trkpt>
      <trkpt lat="-26.475142" lon="28.106539">
        <ele>1515.166279</ele>
        <time>2026-02-22T09:10:34.000Z</time>
      </trkpt>
      <trkpt lat="-26.474688" lon="28.106289">
        <ele>1514.917653</ele>
        <time>2026-02-22T09:10:40.000Z</time>
      </trkpt>
      <trkpt lat="-26.474244" lon="28.10604">
        <ele>1514.669794</ele>
        <time>2026-02-22T09:10:46.000Z</time>
      </trkpt>
      <trkpt lat="-26.473835" lon="28.105777">
        <ele>1514.334142</ele>
        <time>2026-02-22T09:10:51.000Z</time>
      </trkpt>
      <trkpt lat="-26.473125" lon="28.105173">
        <ele>1513.645627</ele>
        <time>2026-02-22T09:11:01.000Z</time>
      </trkpt>
      <trkpt lat="-26.472297" lon="28.104423">
        <ele>1512.515096</ele>
        <time>2026-02-22T09:11:13.000Z</time>
      </trkpt>
      <trkpt lat="-26.467732" lon="28.099997">
        <ele>1504.027801</ele>
        <time>2026-02-22T09:12:20.000Z</time>
      </trkpt>
      <trkpt lat="-26.463634" lon="28.096012">
        <ele>1491.024234</ele>
        <time>2026-02-22T09:13:20.000Z</time>
      </trkpt>
      <trkpt lat="-26.461948" lon="28.094387">
        <ele>1485.851161</ele>
        <time>2026-02-22T09:13:45.000Z</time>
      </trkpt>
      <trkpt lat="-26.461526" lon="28.093986">
        <ele>1485.032325</ele>
        <time>2026-02-22T09:13:51.000Z</time>
      </trkpt>
      <trkpt lat="-26.461264" lon="28.093712">
        <ele>1484.598563</ele>
        <time>2026-02-22T09:13:55.000Z</time>
      </trkpt>
      <trkpt lat="-26.456202" lon="28.088829">
        <ele>1476.453947</ele>
        <time>2026-02-22T09:15:09.000Z</time>
      </trkpt>
      <trkpt lat="-26.45496" lon="28.087634">
        <ele>1474.075097</ele>
        <time>2026-02-22T09:15:27.000Z</time>
      </trkpt>
      <trkpt lat="-26.45461" lon="28.087242">
        <ele>1473.55464</ele>
        <time>2026-02-22T09:15:33.000Z</time>
      </trkpt>
      <trkpt lat="-26.45441" lon="28.086958">
        <ele>1473.19916</ele>
        <time>2026-02-22T09:15:37.000Z</time>
      </trkpt>
      <trkpt lat="-26.454113" lon="28.086415">
        <ele>1472.604452</ele>
        <time>2026-02-22T09:15:43.000Z</time>
      </trkpt>
      <trkpt lat="-26.453981" lon="28.086111">
        <ele>1472.284273</ele>
        <time>2026-02-22T09:15:46.000Z</time>
      </trkpt>
      <trkpt lat="-26.453854" lon="28.085773">
        <ele>1472.232302</ele>
        <time>2026-02-22T09:15:50.000Z</time>
      </trkpt>
      <trkpt lat="-26.453675" lon="28.085025">
        <ele>1472.153873</ele>
        <time>2026-02-22T09:15:58.000Z</time>
      </trkpt>
      <trkpt lat="-26.453448" lon="28.083159">
        <ele>1473.154745</ele>
        <time>2026-02-22T09:16:17.000Z</time>
      </trkpt>
      <trkpt lat="-26.452953" lon="28.078698">
        <ele>1479.341167</ele>
        <time>2026-02-22T09:17:02.000Z</time>
      </trkpt>
      <trkpt lat="-26.452879" lon="28.078101">
        <ele>1480.132175</ele>
        <time>2026-02-22T09:17:08.000Z</time>
      </trkpt>
      <trkpt lat="-26.452484" lon="28.074824">
        <ele>1483.855353</ele>
        <time>2026-02-22T09:17:41.000Z</time>
      </trkpt>
      <trkpt lat="-26.45233" lon="28.073321">
        <ele>1485.219889</ele>
        <time>2026-02-22T09:17:56.000Z</time>
      </trkpt>
      <trkpt lat="-26.452193" lon="28.072229">
        <ele>1485.939955</ele>
        <time>2026-02-22T09:18:07.000Z</time>
      </trkpt>
      <trkpt lat="-26.452108" lon="28.071408">
        <ele>1485.902492</ele>
        <time>2026-02-22T09:18:15.000Z</time>
      </trkpt>
      <trkpt lat="-26.452099" lon="28.071373">
        <ele>1485.90007</ele>
        <time>2026-02-22T09:18:15.000Z</time>
      </trkpt>
      <trkpt lat="-26.451939" lon="28.070169">
        <ele>1485.835825</ele>
        <time>2026-02-22T09:18:27.000Z</time>
      </trkpt>
      <trkpt lat="-26.45187" lon="28.069748">
        <ele>1486.144821</ele>
        <time>2026-02-22T09:18:31.000Z</time>
      </trkpt>
      <trkpt lat="-26.451779" lon="28.069356">
        <ele>1486.437867</ele>
        <time>2026-02-22T09:18:35.000Z</time>
      </trkpt>
      <trkpt lat="-26.451642" lon="28.068875">
        <ele>1486.80294</ele>
        <time>2026-02-22T09:18:40.000Z</time>
      </trkpt>
      <trkpt lat="-26.45103" lon="28.067219">
        <ele>1488.370169</ele>
        <time>2026-02-22T09:18:58.000Z</time>
      </trkpt>
      <trkpt lat="-26.450971" lon="28.066839">
        <ele>1488.73798</ele>
        <time>2026-02-22T09:19:02.000Z</time>
      </trkpt>
      <trkpt lat="-26.450885" lon="28.066423">
        <ele>1489.154416</ele>
        <time>2026-02-22T09:19:06.000Z</time>
      </trkpt>
      <trkpt lat="-26.450847" lon="28.066041">
        <ele>1489.433244</ele>
        <time>2026-02-22T09:19:10.000Z</time>
      </trkpt>
      <trkpt lat="-26.450847" lon="28.065611">
        <ele>1489.742593</ele>
        <time>2026-02-22T09:19:14.000Z</time>
      </trkpt>
      <trkpt lat="-26.450922" lon="28.064866">
        <ele>1490.272928</ele>
        <time>2026-02-22T09:19:21.000Z</time>
      </trkpt>
      <trkpt lat="-26.451529" lon="28.061216">
        <ele>1494.735647</ele>
        <time>2026-02-22T09:19:58.000Z</time>
      </trkpt>
      <trkpt lat="-26.451776" lon="28.060018">
        <ele>1495.572756</ele>
        <time>2026-02-22T09:20:10.000Z</time>
      </trkpt>
      <trkpt lat="-26.451897" lon="28.059647">
        <ele>1495.516975</ele>
        <time>2026-02-22T09:20:14.000Z</time>
      </trkpt>
      <trkpt lat="-26.451777" lon="28.060009">
        <ele>1495.461192</ele>
        <time>2026-02-22T09:20:18.000Z</time>
      </trkpt>
      <trkpt lat="-26.451526" lon="28.061207">
        <ele>1494.800564</ele>
        <time>2026-02-22T09:20:30.000Z</time>
      </trkpt>
      <trkpt lat="-26.45092" lon="28.064864">
        <ele>1490.157099</ele>
        <time>2026-02-22T09:21:07.000Z</time>
      </trkpt>
      <trkpt lat="-26.450844" lon="28.065603">
        <ele>1489.681012</ele>
        <time>2026-02-22T09:21:14.000Z</time>
      </trkpt>
      <trkpt lat="-26.450843" lon="28.066028">
        <ele>1489.403329</ele>
        <time>2026-02-22T09:21:18.000Z</time>
      </trkpt>
      <trkpt lat="-26.450887" lon="28.066416">
        <ele>1489.158917</ele>
        <time>2026-02-22T09:21:22.000Z</time>
      </trkpt>
      <trkpt lat="-26.450971" lon="28.066836">
        <ele>1488.833841</ele>
        <time>2026-02-22T09:21:26.000Z</time>
      </trkpt>
      <trkpt lat="-26.451038" lon="28.067225">
        <ele>1488.441834</ele>
        <time>2026-02-22T09:21:30.000Z</time>
      </trkpt>
      <trkpt lat="-26.45164" lon="28.06889">
        <ele>1486.743074</ele>
        <time>2026-02-22T09:21:48.000Z</time>
      </trkpt>
      <trkpt lat="-26.451794" lon="28.069365">
        <ele>1486.450426</ele>
        <time>2026-02-22T09:21:53.000Z</time>
      </trkpt>
      <trkpt lat="-26.451866" lon="28.069763">
        <ele>1486.215508</ele>
        <time>2026-02-22T09:21:57.000Z</time>
      </trkpt>
      <trkpt lat="-26.451946" lon="28.070171">
        <ele>1485.967817</ele>
        <time>2026-02-22T09:22:01.000Z</time>
      </trkpt>
      <trkpt lat="-26.4521" lon="28.071379">
        <ele>1485.836721</ele>
        <time>2026-02-22T09:22:13.000Z</time>
      </trkpt>
      <trkpt lat="-26.452095" lon="28.071423">
        <ele>1485.840169</ele>
        <time>2026-02-22T09:22:13.000Z</time>
      </trkpt>
      <trkpt lat="-26.452203" lon="28.072234">
        <ele>1485.928097</ele>
        <time>2026-02-22T09:22:21.000Z</time>
      </trkpt>
      <trkpt lat="-26.452321" lon="28.073316">
        <ele>1485.269779</ele>
        <time>2026-02-22T09:22:32.000Z</time>
      </trkpt>
      <trkpt lat="-26.452498" lon="28.074827">
        <ele>1483.824023</ele>
        <time>2026-02-22T09:22:47.000Z</time>
      </trkpt>
      <trkpt lat="-26.452878" lon="28.078108">
        <ele>1480.107625</ele>
        <time>2026-02-22T09:23:20.000Z</time>
      </trkpt>
      <trkpt lat="-26.452956" lon="28.07869">
        <ele>1479.398922</ele>
        <time>2026-02-22T09:23:26.000Z</time>
      </trkpt>
      <trkpt lat="-26.453442" lon="28.08316">
        <ele>1473.136335</ele>
        <time>2026-02-22T09:24:11.000Z</time>
      </trkpt>
      <trkpt lat="-26.453675" lon="28.085022">
        <ele>1472.075263</ele>
        <time>2026-02-22T09:24:30.000Z</time>
      </trkpt>
      <trkpt lat="-26.453854" lon="28.085769">
        <ele>1472.321716</ele>
        <time>2026-02-22T09:24:38.000Z</time>
      </trkpt>
      <trkpt lat="-26.453986" lon="28.086119">
        <ele>1472.439797</ele>
        <time>2026-02-22T09:24:42.000Z</time>
      </trkpt>
      <trkpt lat="-26.454112" lon="28.086426">
        <ele>1472.552661</ele>
        <time>2026-02-22T09:24:45.000Z</time>
      </trkpt>
      <trkpt lat="-26.454412" lon="28.086951">
        <ele>1473.197658</ele>
        <time>2026-02-22T09:24:51.000Z</time>
      </trkpt>
      <trkpt lat="-26.45461" lon="28.087249">
        <ele>1473.583222</ele>
        <time>2026-02-22T09:24:55.000Z</time>
      </trkpt>
      <trkpt lat="-26.454951" lon="28.087641">
        <ele>1474.147698</ele>
        <time>2026-02-22T09:25:00.000Z</time>
      </trkpt>
      <trkpt lat="-26.456199" lon="28.088825">
        <ele>1476.405065</ele>
        <time>2026-02-22T09:25:18.000Z</time>
      </trkpt>
      <trkpt lat="-26.461265" lon="28.093721">
        <ele>1484.539656</ele>
        <time>2026-02-22T09:26:32.000Z</time>
      </trkpt>
      <trkpt lat="-26.461541" lon="28.093984">
        <ele>1485.068027</ele>
        <time>2026-02-22T09:26:36.000Z</time>
      </trkpt>
      <trkpt lat="-26.461954" lon="28.094386">
        <ele>1485.878211</ele>
        <time>2026-02-22T09:26:42.000Z</time>
      </trkpt>
      <trkpt lat="-26.463631" lon="28.096005">
        <ele>1491.020583</ele>
        <time>2026-02-22T09:27:07.000Z</time>
      </trkpt>
      <trkpt lat="-26.467719" lon="28.100009">
        <ele>1504.072449</ele>
        <time>2026-02-22T09:28:07.000Z</time>
      </trkpt>
      <trkpt lat="-26.472298" lon="28.104418">
        <ele>1512.526814</ele>
        <time>2026-02-22T09:29:14.000Z</time>
      </trkpt>
      <trkpt lat="-26.473124" lon="28.105188">
        <ele>1513.686649</ele>
        <time>2026-02-22T09:29:26.000Z</time>
      </trkpt>
      <trkpt lat="-26.473841" lon="28.105765">
        <ele>1514.316807</ele>
        <time>2026-02-22T09:29:36.000Z</time>
      </trkpt>
      <trkpt lat="-26.474233" lon="28.106026">
        <ele>1514.646239</ele>
        <time>2026-02-22T09:29:41.000Z</time>
      </trkpt>
      <trkpt lat="-26.474686" lon="28.106283">
        <ele>1514.934566</ele>
        <time>2026-02-22T09:29:47.000Z</time>
      </trkpt>
      <trkpt lat="-26.475131" lon="28.106532">
        <ele>1515.167926</ele>
        <time>2026-02-22T09:29:53.000Z</time>
      </trkpt>
      <trkpt lat="-26.476371" lon="28.107053">
        <ele>1515.71988</ele>
        <time>2026-02-22T09:30:08.000Z</time>
      </trkpt>
      <trkpt lat="-26.477169" lon="28.107261">
        <ele>1515.931632</ele>
        <time>2026-02-22T09:30:17.000Z</time>
      </trkpt>
      <trkpt lat="-26.477514" lon="28.107314">
        <ele>1516.02181</ele>
        <time>2026-02-22T09:30:21.000Z</time>
      </trkpt>
      <trkpt lat="-26.478234" lon="28.107388">
        <ele>1515.991327</ele>
        <time>2026-02-22T09:30:29.000Z</time>
      </trkpt>
      <trkpt lat="-26.479068" lon="28.107412">
        <ele>1515.753787</ele>
        <time>2026-02-22T09:30:38.000Z</time>
      </trkpt>
      <trkpt lat="-26.483238" lon="28.107256">
        <ele>1512.961034</ele>
        <time>2026-02-22T09:31:24.000Z</time>
      </trkpt>
      <trkpt lat="-26.490034" lon="28.106994">
        <ele>1504.08023</ele>
        <time>2026-02-22T09:32:40.000Z</time>
      </trkpt>
      <trkpt lat="-26.496658" lon="28.106755">
        <ele>1492.066147</ele>
        <time>2026-02-22T09:33:54.000Z</time>
      </trkpt>
      <trkpt lat="-26.497269" lon="28.106682">
        <ele>1491.157074</ele>
        <time>2026-02-22T09:34:01.000Z</time>
      </trkpt>
      <trkpt lat="-26.498723" lon="28.106647">
        <ele>1489.839124</ele>
        <time>2026-02-22T09:34:17.000Z</time>
      </trkpt>
      <trkpt lat="-26.498939" lon="28.106628">
        <ele>1489.685774</ele>
        <time>2026-02-22T09:34:19.000Z</time>
      </trkpt>
      <trkpt lat="-26.498888" lon="28.104831">
        <ele>1489.129169</ele>
        <time>2026-02-22T09:34:37.000Z</time>
      </trkpt>
      <trkpt lat="-26.498666" lon="28.098515">
        <ele>1490.923394</ele>
        <time>2026-02-22T09:35:40.000Z</time>
      </trkpt>
      <trkpt lat="-26.498562" lon="28.095369">
        <ele>1489.908804</ele>
        <time>2026-02-22T09:36:11.000Z</time>
      </trkpt>
      <trkpt lat="-26.49844" lon="28.091813">
        <ele>1486.252851</ele>
        <time>2026-02-22T09:36:46.000Z</time>
      </trkpt>
      <trkpt lat="-26.498288" lon="28.087526">
        <ele>1480.903695</ele>
        <time>2026-02-22T09:37:29.000Z</time>
      </trkpt>
      <trkpt lat="-26.498294" lon="28.087531">
        <ele>1480.893608</ele>
        <time>2026-02-22T09:37:29.000Z</time>
      </trkpt>
      <trkpt lat="-26.498197" lon="28.084684">
        <ele>1477.428567</ele>
        <time>2026-02-22T09:37:57.000Z</time>
      </trkpt>
      <trkpt lat="-26.498092" lon="28.082558">
        <ele>1475.240871</ele>
        <time>2026-02-22T09:38:18.000Z</time>
      </trkpt>
      <trkpt lat="-26.498111" lon="28.081908">
        <ele>1474.614038</ele>
        <time>2026-02-22T09:38:24.000Z</time>
      </trkpt>
      <trkpt lat="-26.49815" lon="28.081556">
        <ele>1474.27801</ele>
        <time>2026-02-22T09:38:28.000Z</time>
      </trkpt>
      <trkpt lat="-26.498324" lon="28.080684">
        <ele>1473.432935</ele>
        <time>2026-02-22T09:38:37.000Z</time>
      </trkpt>
      <trkpt lat="-26.498681" lon="28.079472">
        <ele>1472.148358</ele>
        <time>2026-02-22T09:38:50.000Z</time>
      </trkpt>
      <trkpt lat="-26.499789" lon="28.076188">
        <ele>1468.242394</ele>
        <time>2026-02-22T09:39:25.000Z</time>
      </trkpt>
      <trkpt lat="-26.500163" lon="28.0751">
        <ele>1467.129076</ele>
        <time>2026-02-22T09:39:37.000Z</time>
      </trkpt>
      <trkpt lat="-26.500263" lon="28.074736">
        <ele>1466.767484</ele>
        <time>2026-02-22T09:39:41.000Z</time>
      </trkpt>
      <trkpt lat="-26.500411" lon="28.074008">
        <ele>1466.179681</ele>
        <time>2026-02-22T09:39:48.000Z</time>
      </trkpt>
      <trkpt lat="-26.500481" lon="28.073205">
        <ele>1465.650609</ele>
        <time>2026-02-22T09:39:56.000Z</time>
      </trkpt>
      <trkpt lat="-26.500481" lon="28.072607">
        <ele>1465.258035</ele>
        <time>2026-02-22T09:40:02.000Z</time>
      </trkpt>
      <trkpt lat="-26.500417" lon="28.071899">
        <ele>1465.138722</ele>
        <time>2026-02-22T09:40:09.000Z</time>
      </trkpt>
      <trkpt lat="-26.500264" lon="28.071173">
        <ele>1465.184854</ele>
        <time>2026-02-22T09:40:16.000Z</time>
      </trkpt>
      <trkpt lat="-26.499949" lon="28.070241">
        <ele>1465.673681</ele>
        <time>2026-02-22T09:40:26.000Z</time>
      </trkpt>
      <trkpt lat="-26.499848" lon="28.069936">
        <ele>1466.32554</ele>
        <time>2026-02-22T09:40:29.000Z</time>
      </trkpt>
      <trkpt lat="-26.499475" lon="28.068856">
        <ele>1468.690677</ele>
        <time>2026-02-22T09:40:41.000Z</time>
      </trkpt>
      <trkpt lat="-26.49901" lon="28.067494">
        <ele>1472.716811</ele>
        <time>2026-02-22T09:40:56.000Z</time>
      </trkpt>
      <trkpt lat="-26.498511" lon="28.066095">
        <ele>1476.619129</ele>
        <time>2026-02-22T09:41:11.000Z</time>
      </trkpt>
      <trkpt lat="-26.498012" lon="28.064652">
        <ele>1479.741726</ele>
        <time>2026-02-22T09:41:26.000Z</time>
      </trkpt>
      <trkpt lat="-26.497498" lon="28.063176">
        <ele>1481.947615</ele>
        <time>2026-02-22T09:41:42.000Z</time>
      </trkpt>
      <trkpt lat="-26.497198" lon="28.062342">
        <ele>1483.135568</ele>
        <time>2026-02-22T09:41:51.000Z</time>
      </trkpt>
      <trkpt lat="-26.49699" lon="28.061743">
        <ele>1483.969695</ele>
        <time>2026-02-22T09:41:57.000Z</time>
      </trkpt>
      <trkpt lat="-26.49647" lon="28.060272">
        <ele>1485.799023</ele>
        <time>2026-02-22T09:42:13.000Z</time>
      </trkpt>
      <trkpt lat="-26.496872" lon="28.060073">
        <ele>1486.299119</ele>
        <time>2026-02-22T09:42:18.000Z</time>
      </trkpt>
      <trkpt lat="-26.500696" lon="28.058428">
        <ele>1489.441643</ele>
        <time>2026-02-22T09:43:04.000Z</time>
      </trkpt>
      <trkpt lat="-26.501918" lon="28.05792">
        <ele>1490.415488</ele>
        <time>2026-02-22T09:43:18.000Z</time>
      </trkpt>
      <trkpt lat="-26.50407" lon="28.05711">
        <ele>1491.83305</ele>
        <time>2026-02-22T09:43:43.000Z</time>
      </trkpt>
      <trkpt lat="-26.50441" lon="28.056997">
        <ele>1491.917361</ele>
        <time>2026-02-22T09:43:47.000Z</time>
      </trkpt>
      <trkpt lat="-26.505786" lon="28.056392">
        <ele>1492.078933</ele>
        <time>2026-02-22T09:44:03.000Z</time>
      </trkpt>
      <trkpt lat="-26.508758" lon="28.055059">
        <ele>1490.895829</ele>
        <time>2026-02-22T09:44:39.000Z</time>
      </trkpt>
      <trkpt lat="-26.510194" lon="28.054398">
        <ele>1490.059482</ele>
        <time>2026-02-22T09:44:56.000Z</time>
      </trkpt>
      <trkpt lat="-26.510867" lon="28.053971">
        <ele>1489.633975</ele>
        <time>2026-02-22T09:45:05.000Z</time>
      </trkpt>
      <trkpt lat="-26.511566" lon="28.05334">
        <ele>1489.456904</ele>
        <time>2026-02-22T09:45:15.000Z</time>
      </trkpt>
      <trkpt lat="-26.512177" lon="28.052851">
        <ele>1489.310597</ele>
        <time>2026-02-22T09:45:23.000Z</time>
      </trkpt>
      <trkpt lat="-26.512527" lon="28.052511">
        <ele>1489.478519</ele>
        <time>2026-02-22T09:45:28.000Z</time>
      </trkpt>
      <trkpt lat="-26.51337" lon="28.051796">
        <ele>1490.00147</ele>
        <time>2026-02-22T09:45:40.000Z</time>
      </trkpt>
      <trkpt lat="-26.51531" lon="28.050105">
        <ele>1490.784816</ele>
        <time>2026-02-22T09:46:07.000Z</time>
      </trkpt>
      <trkpt lat="-26.516607" lon="28.049312">
        <ele>1489.794418</ele>
        <time>2026-02-22T09:46:23.000Z</time>
      </trkpt>
      <trkpt lat="-26.516889" lon="28.049101">
        <ele>1489.674159</ele>
        <time>2026-02-22T09:46:27.000Z</time>
      </trkpt>
      <trkpt lat="-26.520722" lon="28.045434">
        <ele>1487.965615</ele>
        <time>2026-02-22T09:47:23.000Z</time>
      </trkpt>
      <trkpt lat="-26.520822" lon="28.045343">
        <ele>1487.888981</ele>
        <time>2026-02-22T09:47:24.000Z</time>
      </trkpt>
      <trkpt lat="-26.520943" lon="28.045335">
        <ele>1487.812142</ele>
        <time>2026-02-22T09:47:25.000Z</time>
      </trkpt>
      <trkpt lat="-26.521049" lon="28.045398">
        <ele>1487.734794</ele>
        <time>2026-02-22T09:47:26.000Z</time>
      </trkpt>
      <trkpt lat="-26.521305" lon="28.045681">
        <ele>1487.489883</ele>
        <time>2026-02-22T09:47:30.000Z</time>
      </trkpt>
      <trkpt lat="-26.521418" lon="28.045731">
        <ele>1487.411764</ele>
        <time>2026-02-22T09:47:31.000Z</time>
      </trkpt>
      <trkpt lat="-26.521541" lon="28.045727">
        <ele>1487.331396</ele>
        <time>2026-02-22T09:47:32.000Z</time>
      </trkpt>
      <trkpt lat="-26.521605" lon="28.045674">
        <ele>1487.277042</ele>
        <time>2026-02-22T09:47:33.000Z</time>
      </trkpt>
      <trkpt lat="-26.522634" lon="28.044702">
        <ele>1486.376633</ele>
        <time>2026-02-22T09:47:48.000Z</time>
      </trkpt>
      <trkpt lat="-26.523008" lon="28.045073">
        <ele>1486.043196</ele>
        <time>2026-02-22T09:47:54.000Z</time>
      </trkpt>
      <trkpt lat="-26.523442" lon="28.045579">
        <ele>1485.642968</ele>
        <time>2026-02-22T09:48:01.000Z</time>
      </trkpt>
      <trkpt lat="-26.523516" lon="28.04567">
        <ele>1485.565772</ele>
        <time>2026-02-22T09:48:02.000Z</time>
      </trkpt>
      <trkpt lat="-26.524022" lon="28.046271">
        <ele>1485.025424</ele>
        <time>2026-02-22T09:48:10.000Z</time>
      </trkpt>
      <trkpt lat="-26.525233" lon="28.047845">
        <ele>1484.188936</ele>
        <time>2026-02-22T09:48:31.000Z</time>
      </trkpt>
      <trkpt lat="-26.525613" lon="28.048407">
        <ele>1484.154407</ele>
        <time>2026-02-22T09:48:38.000Z</time>
      </trkpt>
      <trkpt lat="-26.525854" lon="28.048963">
        <ele>1483.948489</ele>
        <time>2026-02-22T09:48:44.000Z</time>
      </trkpt>
      <trkpt lat="-26.525929" lon="28.049219">
        <ele>1483.726539</ele>
        <time>2026-02-22T09:48:47.000Z</time>
      </trkpt>
      <trkpt lat="-26.525998" lon="28.049578">
        <ele>1483.419246</ele>
        <time>2026-02-22T09:48:51.000Z</time>
      </trkpt>
      <trkpt lat="-26.526627" lon="28.054834">
        <ele>1478.873021</ele>
        <time>2026-02-22T09:49:44.000Z</time>
      </trkpt>
      <trkpt lat="-26.527248" lon="28.057574">
        <ele>1477.78516</ele>
        <time>2026-02-22T09:50:12.000Z</time>
      </trkpt>
      <trkpt lat="-26.527438" lon="28.058436">
        <ele>1477.210359</ele>
        <time>2026-02-22T09:50:21.000Z</time>
      </trkpt>
      <trkpt lat="-26.527578" lon="28.059024">
        <ele>1476.754033</ele>
        <time>2026-02-22T09:50:27.000Z</time>
      </trkpt>
      <trkpt lat="-26.527765" lon="28.059861">
        <ele>1476.085709</ele>
        <time>2026-02-22T09:50:36.000Z</time>
      </trkpt>
      <trkpt lat="-26.527837" lon="28.060114">
        <ele>1475.875023</ele>
        <time>2026-02-22T09:50:39.000Z</time>
      </trkpt>
      <trkpt lat="-26.528003" lon="28.060797">
        <ele>1475.34927</ele>
        <time>2026-02-22T09:50:46.000Z</time>
      </trkpt>
      <trkpt lat="-26.528144" lon="28.061477">
        <ele>1474.88553</ele>
        <time>2026-02-22T09:50:53.000Z</time>
      </trkpt>
      <trkpt lat="-26.528444" lon="28.062782">
        <ele>1473.667875</ele>
        <time>2026-02-22T09:51:06.000Z</time>
      </trkpt>
      <trkpt lat="-26.528516" lon="28.063137">
        <ele>1473.014063</ele>
        <time>2026-02-22T09:51:10.000Z</time>
      </trkpt>
      <trkpt lat="-26.528595" lon="28.063457">
        <ele>1472.390606</ele>
        <time>2026-02-22T09:51:13.000Z</time>
      </trkpt>
      <trkpt lat="-26.5287" lon="28.063918">
        <ele>1471.542704</ele>
        <time>2026-02-22T09:51:18.000Z</time>
      </trkpt>
      <trkpt lat="-26.527115" lon="28.064217">
        <ele>1468.603797</ele>
        <time>2026-02-22T09:51:36.000Z</time>
      </trkpt>
      <trkpt lat="-26.520349" lon="28.065692">
        <ele>1466.22606</ele>
        <time>2026-02-22T09:52:53.000Z</time>
      </trkpt>
      <trkpt lat="-26.519505" lon="28.065862">
        <ele>1466.090873</ele>
        <time>2026-02-22T09:53:03.000Z</time>
      </trkpt>
      <trkpt lat="-26.516477" lon="28.065443">
        <ele>1465.783717</ele>
        <time>2026-02-22T09:53:37.000Z</time>
      </trkpt>
    </trkseg>
  </trk>
</gpx>

<!--
Performance optimized by W3 Total Cache. Learn more: https://www.boldgrid.com/w3-total-cache/?utm_source=w3tc&utm_medium=footer_comment&utm_campaign=free_plugin

Page Caching using Disk: Enhanced{w3tc_pagecache_reject_reason} 

Served from: www.aquabike.world @ 2026-05-10 07:12:52 by W3 Total Cache
-->